createdAt,value
2024-01-06T00:02:23.668Z,6.40
2024-01-06T00:04:50.584Z,6.40
2024-01-06T00:07:17.694Z,6.40
2024-01-06T00:09:46.067Z,6.40
2024-01-06T00:12:13.311Z,6.50
2024-01-06T00:14:43.267Z,6.40
2024-01-06T00:17:10.212Z,6.40
2024-01-06T00:19:37.215Z,6.40
2024-01-06T00:22:04.510Z,6.30
2024-01-06T00:24:31.838Z,6.30
2024-01-06T00:27:00.221Z,6.30
2024-01-06T00:29:27.186Z,6.30
2024-01-06T00:31:54.193Z,6.30
2024-01-06T00:34:21.241Z,6.30
2024-01-06T00:36:48.315Z,6.30
2024-01-06T00:39:15.343Z,6.30
2024-01-06T00:41:42.290Z,6.30
2024-01-06T00:44:10.799Z,6.30
2024-01-06T00:46:37.678Z,6.30
2024-01-06T00:49:05.098Z,6.30
2024-01-06T00:51:32.321Z,6.30
2024-01-06T00:53:59.506Z,6.30
2024-01-06T00:56:28.160Z,6.30
2024-01-06T00:58:55.254Z,6.40
2024-01-06T01:01:23.643Z,6.40
2024-01-06T01:03:50.705Z,6.30
2024-01-06T01:06:17.837Z,6.30
2024-01-06T01:08:44.830Z,6.30
2024-01-06T01:11:11.950Z,6.30
2024-01-06T01:13:39.003Z,6.30
2024-01-06T01:16:06.382Z,6.20
2024-01-06T01:18:34.848Z,6.20
2024-01-06T01:21:01.827Z,6.10
2024-01-06T01:23:28.830Z,6.00
2024-01-06T01:25:56.258Z,6.00
2024-01-06T01:28:23.203Z,5.90
2024-01-06T01:30:50.535Z,5.90
2024-01-06T01:33:17.689Z,5.80
2024-01-06T01:35:46.150Z,5.70
2024-01-06T01:38:13.188Z,5.70
2024-01-06T01:40:40.186Z,5.60
2024-01-06T01:43:08.114Z,5.50
2024-01-06T01:45:35.098Z,5.50
2024-01-06T01:48:02.200Z,5.50
2024-01-06T01:50:31.693Z,5.50
2024-01-06T01:53:00.952Z,5.50
2024-01-06T01:55:29.107Z,5.50
2024-01-06T01:57:56.727Z,5.50
2024-01-06T02:00:26.907Z,5.60
2024-01-06T02:02:54.685Z,5.60
2024-01-06T02:05:21.732Z,5.70
2024-01-06T02:07:48.910Z,5.70
2024-01-06T02:10:17.314Z,5.80
2024-01-06T02:12:44.256Z,5.90
2024-01-06T02:15:11.248Z,6.00
2024-01-06T02:17:40.081Z,6.10
2024-01-06T02:20:08.877Z,6.20
2024-01-06T02:22:38.175Z,6.20
2024-01-06T02:25:13.184Z,6.30
2024-01-06T02:27:40.413Z,6.30
2024-01-06T02:30:08.897Z,6.30
2024-01-06T02:32:36.065Z,6.30
2024-01-06T02:35:03.348Z,6.30
2024-01-06T02:37:30.336Z,6.40
2024-01-06T02:39:58.676Z,6.40
2024-01-06T02:42:26.395Z,6.40
2024-01-06T02:44:53.622Z,6.40
2024-01-06T02:47:20.614Z,6.40
2024-01-06T02:49:47.824Z,6.50
2024-01-06T02:52:14.969Z,6.50
2024-01-06T02:54:41.964Z,6.60
2024-01-06T02:57:10.409Z,6.60
2024-01-06T02:59:37.453Z,6.70
2024-01-06T03:02:04.560Z,6.70
2024-01-06T03:04:31.683Z,6.80
2024-01-06T03:06:58.820Z,6.80
2024-01-06T03:09:25.843Z,6.80
2024-01-06T03:11:52.825Z,6.80
2024-01-06T03:14:21.145Z,6.80
2024-01-06T03:16:48.113Z,6.90
2024-01-06T03:19:15.330Z,6.90
2024-01-06T03:21:42.393Z,6.90
2024-01-06T03:24:10.335Z,6.90
2024-01-06T03:26:37.411Z,7.00
2024-01-06T03:29:04.386Z,6.90
2024-01-06T03:31:32.775Z,6.90
2024-01-06T03:34:00.032Z,7.00
2024-01-06T03:36:27.185Z,6.90
2024-01-06T03:38:54.257Z,6.90
2024-01-06T03:41:21.261Z,6.90
2024-01-06T03:43:48.220Z,6.80
2024-01-06T03:46:15.213Z,6.80
2024-01-06T03:48:43.761Z,6.80
2024-01-06T03:51:11.834Z,6.80
2024-01-06T03:53:38.881Z,6.90
2024-01-06T03:56:06.338Z,6.90
2024-01-06T03:58:33.598Z,6.90
2024-01-06T04:01:00.879Z,7.00
2024-01-06T04:03:28.086Z,7.00
2024-01-06T04:05:56.366Z,7.00
2024-01-06T04:08:23.313Z,7.10
2024-01-06T04:10:50.252Z,7.10
2024-01-06T04:13:17.309Z,7.10
2024-01-06T04:15:44.382Z,7.10
2024-01-06T04:18:11.872Z,7.10
2024-01-06T04:20:38.891Z,7.10
2024-01-06T04:23:07.322Z,7.10
2024-01-06T04:25:34.399Z,7.10
2024-01-06T04:28:01.631Z,7.00
2024-01-06T04:30:28.606Z,7.00
2024-01-06T04:32:55.905Z,6.90
2024-01-06T04:35:23.184Z,6.80
2024-01-06T04:37:50.142Z,6.80
2024-01-06T04:40:18.637Z,6.70
2024-01-06T04:42:45.795Z,6.70
2024-01-06T04:45:13.038Z,6.60
2024-01-06T04:47:40.020Z,6.60
2024-01-06T04:50:08.230Z,6.50
2024-01-06T04:52:35.232Z,6.60
2024-01-06T04:55:03.236Z,6.50
2024-01-06T04:57:31.569Z,6.60
2024-01-06T04:59:59.123Z,6.70
2024-01-06T05:02:26.172Z,6.70
2024-01-06T05:04:53.152Z,6.60
2024-01-06T05:07:20.151Z,6.70
2024-01-06T05:09:47.119Z,6.60
2024-01-06T05:12:14.177Z,6.60
2024-01-06T05:14:42.499Z,6.60
2024-01-06T05:17:10.143Z,6.60
2024-01-06T05:19:37.702Z,6.60
2024-01-06T05:22:04.915Z,6.60
2024-01-06T05:24:31.916Z,6.60
2024-01-06T05:26:58.909Z,6.60
2024-01-06T05:29:27.151Z,6.50
2024-01-06T05:31:55.552Z,6.40
2024-01-06T05:34:22.639Z,6.40
2024-01-06T05:36:49.592Z,6.40
2024-01-06T05:39:16.621Z,6.40
2024-01-06T05:41:43.571Z,6.40
2024-01-06T05:44:10.578Z,6.40
2024-01-06T05:46:37.502Z,6.50
2024-01-06T05:49:05.917Z,6.50
2024-01-06T05:51:33.054Z,6.50
2024-01-06T05:54:00.015Z,6.60
2024-01-06T05:56:27.443Z,6.60
2024-01-06T05:58:54.917Z,6.60
2024-01-06T06:01:23.527Z,6.60
2024-01-06T06:03:51.644Z,6.60
2024-01-06T06:06:21.164Z,6.50
2024-01-06T06:08:49.625Z,6.50
2024-01-06T06:11:17.682Z,6.50
2024-01-06T06:13:44.734Z,6.50
2024-01-06T06:16:13.515Z,6.50
2024-01-06T06:18:40.801Z,6.50
2024-01-06T06:21:08.871Z,6.60
2024-01-06T06:23:37.197Z,6.50
2024-01-06T06:26:06.407Z,6.50
2024-01-06T06:28:33.627Z,6.50
2024-01-06T06:31:00.762Z,6.60
2024-01-06T06:33:27.925Z,6.60
2024-01-06T06:35:54.915Z,6.60
2024-01-06T06:38:22.477Z,6.70
2024-01-06T06:40:50.778Z,6.60
2024-01-06T06:43:20.073Z,6.60
2024-01-06T06:45:47.318Z,6.60
2024-01-06T06:48:14.449Z,6.60
2024-01-06T06:50:42.467Z,6.60
2024-01-06T06:53:09.566Z,6.60
2024-01-06T06:55:38.733Z,6.60
2024-01-06T06:58:07.509Z,6.60
2024-01-06T07:00:34.550Z,6.60
2024-01-06T07:03:01.845Z,6.60
2024-01-06T07:05:29.167Z,6.60
2024-01-06T07:07:56.202Z,6.60
2024-01-06T07:10:23.433Z,6.70
2024-01-06T07:12:50.448Z,6.70
2024-01-06T07:15:18.991Z,6.80
2024-01-06T07:17:46.038Z,6.70
2024-01-06T07:20:13.401Z,6.70
2024-01-06T07:22:40.309Z,6.80
2024-01-06T07:25:08.471Z,6.90
2024-01-06T07:27:35.562Z,6.90
2024-01-06T07:30:02.511Z,6.90
2024-01-06T07:32:30.909Z,6.90
2024-01-06T07:34:57.878Z,7.00
2024-01-06T07:37:25.255Z,7.00
2024-01-06T07:39:52.384Z,7.00
2024-01-06T07:42:19.516Z,7.00
2024-01-06T07:44:46.508Z,6.90
2024-01-06T07:47:13.600Z,6.90
2024-01-06T07:49:41.921Z,6.80
2024-01-06T07:52:09.021Z,6.70
2024-01-06T07:54:36.178Z,6.60
2024-01-06T07:57:03.468Z,6.70
2024-01-06T07:59:30.522Z,6.60
2024-01-06T08:01:57.533Z,6.70
2024-01-06T08:04:24.552Z,6.70
2024-01-06T08:06:56.181Z,6.70
2024-01-06T08:09:24.754Z,6.70
2024-01-06T08:11:51.720Z,6.70
2024-01-06T08:14:18.704Z,6.70
2024-01-06T08:16:47.062Z,6.70
2024-01-06T08:19:14.652Z,6.70
2024-01-06T08:21:41.729Z,6.70
2024-01-06T08:24:10.187Z,6.70
2024-01-06T08:26:37.128Z,6.70
2024-01-06T08:29:04.033Z,6.70
2024-01-06T08:31:31.257Z,6.70
2024-01-06T08:33:58.532Z,6.70
2024-01-06T08:36:25.676Z,6.70
2024-01-06T08:38:52.630Z,6.80
2024-01-06T08:41:20.913Z,6.80
2024-01-06T08:43:47.811Z,6.80
2024-01-06T08:46:14.824Z,6.80
2024-01-06T08:48:42.055Z,6.90
2024-01-06T08:51:09.105Z,6.90
2024-01-06T08:53:36.135Z,6.90
2024-01-06T08:56:03.169Z,6.90
2024-01-06T08:58:31.472Z,6.90
2024-01-06T09:00:58.644Z,6.80
2024-01-06T09:03:27.668Z,6.80
2024-01-06T09:05:57.545Z,6.90
2024-01-06T09:08:25.346Z,6.90
2024-01-06T09:10:59.496Z,6.90
2024-01-06T09:13:26.724Z,7.00
2024-01-06T09:15:55.423Z,7.00
2024-01-06T09:18:22.647Z,7.00
2024-01-06T09:20:49.786Z,6.90
2024-01-06T09:23:22.532Z,7.00
2024-01-06T09:25:53.086Z,7.00
2024-01-06T09:28:22.092Z,6.90
2024-01-06T09:30:49.181Z,6.90
2024-01-06T09:33:18.822Z,6.90
2024-01-06T09:35:46.232Z,6.90
2024-01-06T09:38:13.362Z,6.90
2024-01-06T09:40:46.932Z,6.80
2024-01-06T09:43:14.141Z,6.80
2024-01-06T09:45:41.247Z,6.80
2024-01-06T09:48:13.099Z,6.80
2024-01-06T09:50:45.810Z,6.80
2024-01-06T09:53:13.341Z,6.80
2024-01-06T09:55:40.597Z,6.80
2024-01-06T09:58:08.119Z,6.80
2024-01-06T10:00:35.173Z,6.80
2024-01-06T10:03:02.171Z,6.80
2024-01-06T10:05:29.152Z,6.80
2024-01-06T10:07:57.406Z,6.80
2024-01-06T10:10:24.819Z,6.90
2024-01-06T10:12:55.544Z,7.00
2024-01-06T10:15:23.152Z,7.10
2024-01-06T10:17:51.191Z,7.10
2024-01-06T10:20:19.006Z,7.20
2024-01-06T10:22:46.439Z,7.20
2024-01-06T10:25:16.119Z,7.20
2024-01-06T10:27:43.222Z,7.20
2024-01-06T10:30:11.758Z,7.10
2024-01-06T10:32:40.207Z,7.10
2024-01-06T10:35:08.635Z,7.20
2024-01-06T10:37:36.609Z,7.20
2024-01-06T10:40:11.384Z,7.20
2024-01-06T10:42:41.067Z,7.20
2024-01-06T10:45:11.740Z,7.30
2024-01-06T10:47:40.053Z,7.20
2024-01-06T10:50:09.347Z,7.20
2024-01-06T10:52:37.969Z,7.20
2024-01-06T10:55:06.572Z,7.20
2024-01-06T10:57:33.817Z,7.20
2024-01-06T11:00:02.409Z,7.20
2024-01-06T11:02:30.315Z,7.20
2024-01-06T11:04:57.232Z,7.20
2024-01-06T11:07:26.147Z,7.30
2024-01-06T11:09:58.384Z,7.30
2024-01-06T11:12:27.454Z,7.40
2024-01-06T11:14:55.327Z,7.40
2024-01-06T11:17:55.254Z,7.50
2024-01-06T11:20:23.215Z,7.60
2024-01-06T11:22:50.904Z,7.60
2024-01-06T11:25:21.030Z,7.70
2024-01-06T11:27:48.935Z,7.80
2024-01-06T11:30:23.391Z,7.90
2024-01-06T11:32:53.843Z,8.00
2024-01-06T11:35:23.240Z,8.00
2024-01-06T11:37:58.246Z,8.10
2024-01-06T11:40:31.736Z,8.10
2024-01-06T11:43:00.544Z,8.10
2024-01-06T11:45:29.075Z,8.20
2024-01-06T11:47:59.883Z,8.20
2024-01-06T11:50:28.562Z,8.20
2024-01-06T11:52:56.440Z,8.20
2024-01-06T11:55:23.685Z,8.30
2024-01-06T11:57:51.481Z,8.40
2024-01-06T12:00:19.364Z,8.40
2024-01-06T12:02:46.578Z,8.50
2024-01-06T12:05:16.220Z,8.50
2024-01-06T12:07:53.846Z,8.50
2024-01-06T12:10:22.861Z,8.40
2024-01-06T12:12:57.859Z,8.40
2024-01-06T12:15:25.145Z,8.50
2024-01-06T12:17:52.389Z,8.50
2024-01-06T12:20:19.410Z,8.60
2024-01-06T12:22:47.803Z,8.60
2024-01-06T12:25:16.720Z,8.50
2024-01-06T12:27:44.624Z,8.50
2024-01-06T12:30:17.192Z,8.50
2024-01-06T12:32:45.206Z,8.50
2024-01-06T12:35:12.949Z,8.40
2024-01-06T12:37:42.567Z,8.40
2024-01-06T12:40:12.916Z,8.40
2024-01-06T12:42:40.296Z,8.40
2024-01-06T12:45:08.691Z,8.40
2024-01-06T12:47:36.013Z,8.40
2024-01-06T12:50:05.449Z,8.50
2024-01-06T12:52:32.585Z,8.50
2024-01-06T12:54:59.544Z,8.60
2024-01-06T12:57:27.945Z,8.60
2024-01-06T12:59:55.625Z,8.60
2024-01-06T13:02:22.883Z,8.60
2024-01-06T13:04:49.938Z,8.60
2024-01-06T13:07:17.055Z,8.50
2024-01-06T13:09:44.441Z,8.50
2024-01-06T13:12:11.382Z,8.60
2024-01-06T13:14:39.737Z,8.60
2024-01-06T13:17:07.325Z,8.60
2024-01-06T13:19:35.234Z,8.60
2024-01-06T13:22:02.526Z,8.70
2024-01-06T13:24:29.562Z,8.70
2024-01-06T13:26:56.516Z,8.70
2024-01-06T13:29:24.039Z,8.70
2024-01-06T13:31:53.991Z,8.70
2024-01-06T13:34:21.478Z,8.70
2024-01-06T13:36:48.620Z,8.80
2024-01-06T13:39:21.967Z,8.80
2024-01-06T13:41:50.188Z,8.90
2024-01-06T13:44:17.401Z,8.90
2024-01-06T13:46:46.044Z,8.90
2024-01-06T13:49:15.094Z,8.90
2024-01-06T13:51:42.384Z,8.90
2024-01-06T13:54:10.405Z,8.90
2024-01-06T13:56:38.208Z,8.90
2024-01-06T13:59:05.206Z,9.00
2024-01-06T14:01:32.707Z,9.00
2024-01-06T14:04:00.237Z,9.00
2024-01-06T14:06:31.539Z,9.00
2024-01-06T14:08:59.398Z,9.00
2024-01-06T14:11:27.127Z,9.00
2024-01-06T14:13:54.323Z,9.00
2024-01-06T14:16:22.009Z,9.10
2024-01-06T14:18:49.561Z,9.10
2024-01-06T14:21:20.431Z,9.10
2024-01-06T14:23:50.767Z,9.10
2024-01-06T14:26:19.492Z,9.20
2024-01-06T14:28:46.642Z,9.20
2024-01-06T14:31:13.827Z,9.20
2024-01-06T14:33:41.039Z,9.20
2024-01-06T14:36:09.570Z,9.20
2024-01-06T14:42:20.455Z,9.20
2024-01-06T14:44:47.654Z,9.20
2024-01-06T14:47:14.746Z,9.10
2024-01-06T14:49:41.877Z,9.10
2024-01-06T14:52:09.275Z,9.00
2024-01-06T14:54:36.846Z,9.00
2024-01-06T14:57:04.143Z,9.00
2024-01-06T14:59:33.357Z,8.90
2024-01-06T15:02:00.424Z,8.90
2024-01-06T15:04:29.818Z,8.90
2024-01-06T15:06:57.863Z,8.90
2024-01-06T15:09:26.676Z,8.90
2024-01-06T15:11:53.748Z,8.90
2024-01-06T15:14:20.759Z,8.90
2024-01-06T15:16:49.053Z,8.80
2024-01-06T15:19:16.251Z,8.80
2024-01-06T15:21:44.034Z,8.80
2024-01-06T15:24:11.215Z,8.80
2024-01-06T15:26:38.229Z,8.80
2024-01-06T15:29:06.478Z,8.80
2024-01-06T15:31:33.707Z,8.80
2024-01-06T15:34:02.437Z,8.80
2024-01-06T15:36:29.683Z,8.80
2024-01-06T15:38:56.613Z,8.80
2024-01-06T15:41:23.645Z,8.80
2024-01-06T15:43:50.648Z,8.80
2024-01-06T15:46:18.561Z,8.80
2024-01-06T15:48:45.903Z,8.80
2024-01-06T15:51:14.425Z,8.70
2024-01-06T15:53:41.384Z,8.80
2024-01-06T15:56:08.504Z,8.80
2024-01-06T15:58:35.481Z,8.80
2024-01-06T16:01:02.614Z,8.80
2024-01-06T16:03:29.746Z,8.70
2024-01-06T16:05:57.020Z,8.70
2024-01-06T16:08:25.438Z,8.70
2024-01-06T16:10:52.413Z,8.70
2024-01-06T16:13:19.403Z,8.70
2024-01-06T16:15:46.877Z,8.70
2024-01-06T16:18:14.227Z,8.70
2024-01-06T16:20:41.636Z,8.70
2024-01-06T16:23:14.565Z,8.70
2024-01-06T16:25:42.956Z,8.70
2024-01-06T16:28:12.631Z,8.70
2024-01-06T16:30:40.007Z,8.70
2024-01-06T16:33:08.091Z,8.70
2024-01-06T16:35:35.333Z,8.70
2024-01-06T16:38:02.824Z,8.70
2024-01-06T16:40:29.778Z,8.70
2024-01-06T16:42:58.552Z,8.70
2024-01-06T16:45:25.976Z,8.70
2024-01-06T16:47:53.145Z,8.70
2024-01-06T16:50:20.274Z,8.70
2024-01-06T16:52:47.238Z,8.70
2024-01-06T17:00:46.767Z,8.70
2024-01-06T17:03:15.650Z,8.70
2024-01-06T17:05:42.781Z,8.70
2024-01-06T17:08:09.857Z,8.70
2024-01-06T17:10:36.838Z,8.70
2024-01-06T17:13:04.090Z,8.70
2024-01-06T17:15:31.448Z,8.70
2024-01-06T17:18:02.719Z,8.70
2024-01-06T17:20:31.429Z,8.70
2024-01-06T17:22:58.380Z,8.70
2024-01-06T17:25:25.373Z,8.70
2024-01-06T17:27:52.367Z,8.70
2024-01-06T17:30:19.694Z,8.70
2024-01-06T17:32:46.715Z,8.60
2024-01-06T17:35:15.215Z,8.60
2024-01-06T17:37:42.098Z,8.60
2024-01-06T17:40:10.017Z,8.60
2024-01-06T17:42:37.212Z,8.50
2024-01-06T17:45:05.178Z,8.50
2024-01-06T17:47:32.530Z,8.50
2024-01-06T17:49:59.832Z,8.40
2024-01-06T17:52:28.657Z,8.40
2024-01-06T17:54:56.900Z,8.40
2024-01-06T17:57:24.099Z,8.30
2024-01-06T17:59:53.609Z,8.30
2024-01-06T18:02:20.704Z,8.30
2024-01-06T18:04:48.169Z,8.30
2024-01-06T18:07:15.463Z,8.30
2024-01-06T18:09:44.070Z,8.30
2024-01-06T18:12:11.276Z,8.30
2024-01-06T18:14:38.838Z,8.30
2024-01-06T18:17:07.268Z,8.30
2024-01-06T18:19:34.304Z,8.30
2024-01-06T18:22:01.455Z,8.30
2024-01-06T18:24:29.566Z,8.30
2024-01-06T18:26:58.124Z,8.30
2024-01-06T18:29:25.226Z,8.20
2024-01-06T18:31:52.383Z,8.20
2024-01-06T18:34:19.628Z,8.20
2024-01-06T18:36:47.644Z,8.20
2024-01-06T18:39:14.768Z,8.20
2024-01-06T18:41:42.677Z,8.20
2024-01-06T18:44:11.552Z,8.20
2024-01-06T18:46:39.558Z,8.20
2024-01-06T18:49:07.395Z,8.20
2024-01-06T18:51:38.486Z,8.20
2024-01-06T18:54:06.057Z,8.20
2024-01-06T18:56:33.076Z,8.20
2024-01-06T18:59:00.956Z,8.20
2024-01-06T19:01:29.675Z,8.20
2024-01-06T19:03:56.865Z,8.20
2024-01-06T19:06:24.034Z,8.20
2024-01-06T19:08:50.986Z,8.20
2024-01-06T19:11:17.937Z,8.20
2024-01-06T19:13:45.820Z,8.20
2024-01-06T19:16:13.018Z,8.20
2024-01-06T19:18:41.903Z,8.20
2024-01-06T19:21:14.701Z,8.20
2024-01-06T19:23:42.120Z,8.20
2024-01-06T19:26:09.241Z,8.20
2024-01-06T19:28:36.237Z,8.30
2024-01-06T19:31:03.402Z,8.30
2024-01-06T19:33:30.685Z,8.30
2024-01-06T19:35:59.594Z,8.30
2024-01-06T19:38:26.474Z,8.30
2024-01-06T19:40:53.598Z,8.30
2024-01-06T19:43:20.716Z,8.30
2024-01-06T19:45:47.749Z,8.30
2024-01-06T19:48:15.243Z,8.30
2024-01-06T19:50:42.291Z,8.30
2024-01-06T19:53:10.685Z,8.30
2024-01-06T19:55:37.718Z,8.30
2024-01-06T19:58:04.992Z,8.20
2024-01-06T20:00:32.055Z,8.20
2024-01-06T20:02:58.978Z,8.20
2024-01-06T20:05:25.971Z,8.20
2024-01-06T20:07:52.974Z,8.20
2024-01-06T20:10:21.641Z,8.20
2024-01-06T20:12:48.651Z,8.20
2024-01-06T20:15:15.868Z,8.10
2024-01-06T20:17:42.827Z,8.20
2024-01-06T20:20:12.912Z,8.20
2024-01-06T20:22:39.887Z,8.20
2024-01-06T20:25:07.767Z,8.20
2024-01-06T20:27:36.615Z,8.20
2024-01-06T20:30:04.534Z,8.20
2024-01-06T20:32:31.935Z,8.20
2024-01-06T20:35:00.845Z,8.20
2024-01-06T20:37:27.916Z,8.20
2024-01-06T20:39:55.970Z,8.20
2024-01-06T20:42:23.045Z,8.20
2024-01-06T20:44:51.388Z,8.20
2024-01-06T20:47:18.547Z,8.20
2024-01-06T20:49:45.564Z,8.20
2024-01-06T20:52:12.582Z,8.20
2024-01-06T20:54:39.605Z,8.20
2024-01-06T20:57:08.623Z,8.20
2024-01-06T20:59:35.620Z,8.20
2024-01-06T21:02:04.638Z,8.20
2024-01-06T21:04:31.670Z,8.20
2024-01-06T21:06:58.735Z,8.20
2024-01-06T21:09:27.341Z,8.20
2024-01-06T21:11:55.616Z,8.10
2024-01-06T21:14:22.825Z,8.10
2024-01-06T21:16:51.707Z,8.10
2024-01-06T21:19:21.987Z,8.10
2024-01-06T21:21:49.247Z,8.10
2024-01-06T21:24:16.373Z,8.10
2024-01-06T21:26:43.547Z,8.10
2024-01-06T21:29:11.020Z,8.10
2024-01-06T21:31:38.406Z,8.10
2024-01-06T21:34:05.563Z,8.10
2024-01-06T21:36:34.177Z,8.00
2024-01-06T21:39:01.117Z,8.00
2024-01-06T21:41:28.161Z,8.00
2024-01-06T21:43:55.088Z,8.10
2024-01-06T21:46:22.203Z,8.00
2024-01-06T21:48:49.244Z,8.00
2024-01-06T21:51:18.737Z,8.00
2024-01-06T21:53:47.145Z,8.00
2024-01-06T21:56:14.424Z,8.00
2024-01-06T21:58:41.363Z,8.00
2024-01-06T22:01:09.652Z,8.00
2024-01-06T22:03:36.877Z,8.00
2024-01-06T22:06:04.169Z,8.00
2024-01-06T22:08:32.893Z,7.90
2024-01-06T22:11:01.359Z,7.90
2024-01-06T22:13:28.260Z,7.90
2024-01-06T22:15:55.284Z,7.90
2024-01-06T22:18:23.968Z,7.90
2024-01-06T22:20:51.234Z,7.80
2024-01-06T22:23:18.205Z,7.60
2024-01-06T22:25:45.145Z,7.80
2024-01-06T22:28:15.201Z,7.80
2024-01-06T22:30:42.418Z,7.80
2024-01-06T22:33:09.646Z,7.90
2024-01-06T22:35:36.612Z,7.80
2024-01-06T22:38:03.759Z,7.80
2024-01-06T22:40:30.661Z,7.80
2024-01-06T22:42:57.703Z,7.80
2024-01-06T22:45:27.127Z,7.80
2024-01-06T22:47:54.113Z,7.80
2024-01-06T22:50:21.182Z,7.80
2024-01-06T22:52:48.141Z,7.80
2024-01-06T22:55:17.292Z,7.80
2024-01-06T22:57:44.421Z,7.90
2024-01-06T23:00:17.411Z,7.60
2024-01-06T23:02:46.070Z,7.90
2024-01-06T23:05:14.198Z,7.90
2024-01-06T23:07:41.338Z,7.90
2024-01-06T23:10:11.232Z,7.90
2024-01-06T23:12:38.555Z,7.90
2024-01-06T23:15:07.385Z,7.90
2024-01-06T23:17:34.388Z,7.90
2024-01-06T23:20:02.886Z,7.80
2024-01-06T23:22:29.985Z,7.80
2024-01-06T23:24:57.066Z,7.80
2024-01-06T23:27:24.491Z,7.80
2024-01-06T23:29:51.827Z,7.70
2024-01-06T23:32:18.955Z,7.70
2024-01-06T23:34:46.016Z,7.60
2024-01-06T23:37:14.665Z,7.60
2024-01-06T23:39:41.686Z,7.50
2024-01-06T23:42:09.996Z,7.50
2024-01-06T23:44:37.081Z,7.50
2024-01-06T23:47:04.426Z,7.50
2024-01-06T23:49:31.472Z,7.40
2024-01-06T23:51:58.540Z,7.40
2024-01-06T23:54:26.875Z,7.30
2024-01-06T23:56:53.825Z,7.30
2024-01-06T23:59:21.004Z,7.20
